Time;durP1;ratioP1;P1;durP2;ratioP2;P2;SDS_P1;SDS_P2;PMS_P1;PMS_P2;Temp;Humidity;BMP_temperature;BMP_pressure;BME280_temperature;BME280_humidity;BME280_pressure;Samples;Min_cycle;Max_cycle;Signal;HPM_P1;HPM_P2
2022/10/12 02:48:23;;;;;;;10.65;5.00;;;14.10;99.90;;;;;;4946097;23;86716;-77
2022/10/12 02:50:54;;;;;;;14.20;5.65;;;14.20;99.90;;;;;;4918390;28;86675;-77
2022/10/12 02:53:22;;;;;;;11.20;5.13;;;14.20;99.90;;;;;;4918358;28;87812;-77
2022/10/12 02:55:52;;;;;;;15.73;6.20;;;14.20;99.90;;;;;;4935003;28;90559;-76
2022/10/12 02:58:18;;;;;;;13.05;6.00;;;14.20;99.90;;;;;;4917035;28;87016;-79
2022/10/12 03:00:44;;;;;;;13.10;5.70;;;14.00;99.90;;;;;;4918127;28;86642;-79
2022/10/12 03:03:10;;;;;;;16.60;5.95;;;14.00;99.90;;;;;;4920376;28;87962;-79
2022/10/12 03:05:36;;;;;;;15.38;6.70;;;14.00;99.90;;;;;;4910641;28;88085;-79
2022/10/12 03:08:02;;;;;;;16.92;6.38;;;14.00;99.90;;;;;;4920946;28;86600;-80
2022/10/12 03:10:28;;;;;;;15.48;5.40;;;13.90;99.90;;;;;;4916552;28;86636;-79
2022/10/12 03:12:54;;;;;;;12.82;4.50;;;14.00;99.90;;;;;;4920521;28;86786;-79
2022/10/12 03:15:20;;;;;;;13.70;4.70;;;14.00;99.90;;;;;;4920264;28;86787;-79
2022/10/12 03:17:46;;;;;;;7.78;4.18;;;14.10;99.90;;;;;;4918717;28;87413;-79
2022/10/12 03:20:11;;;;;;;10.00;4.57;;;14.00;99.90;;;;;;4917148;28;86459;-79
2022/10/12 03:22:37;;;;;;;10.68;4.47;;;14.10;99.90;;;;;;4904059;28;87661;-80
2022/10/12 03:25:03;;;;;;;13.88;4.68;;;14.10;99.90;;;;;;4913339;28;86642;-80
2022/10/12 03:27:29;;;;;;;9.80;3.92;;;14.10;99.90;;;;;;4920660;28;87075;-80
2022/10/12 03:29:54;;;;;;;13.27;5.20;;;14.00;99.90;;;;;;4919274;28;86867;-80
2022/10/12 03:32:21;;;;;;;11.75;4.78;;;14.00;99.90;;;;;;4910101;28;87707;-81
2022/10/12 03:34:46;;;;;;;14.35;5.90;;;13.90;99.90;;;;;;4910784;28;86953;-80
2022/10/12 03:37:12;;;;;;;13.50;4.93;;;13.90;99.90;;;;;;4918219;28;86315;-80
2022/10/12 03:39:38;;;;;;;11.60;4.53;;;13.90;99.90;;;;;;4908162;28;86258;-81
2022/10/12 03:42:04;;;;;;;9.80;4.90;;;13.90;99.90;;;;;;4909331;28;87868;-80
2022/10/12 03:44:29;;;;;;;10.90;4.88;;;14.00;99.90;;;;;;4907332;28;87118;-81
2022/10/12 03:46:55;;;;;;;14.50;4.70;;;14.00;99.90;;;;;;4904539;28;86840;-81
2022/10/12 03:49:21;;;;;;;14.18;7.00;;;14.10;99.90;;;;;;4909577;28;86960;-81
2022/10/12 03:51:46;;;;;;;19.15;9.05;;;14.10;99.90;;;;;;4908570;28;87046;-81
2022/10/12 03:54:12;;;;;;;23.52;12.65;;;14.10;99.90;;;;;;4907607;28;86721;-81
2022/10/12 03:56:38;;;;;;;44.60;19.92;;;14.10;99.90;;;;;;4908867;28;87072;-81
2022/10/12 03:59:04;;;;;;;29.98;14.52;;;13.90;99.90;;;;;;4918558;28;86312;-81
2022/10/12 04:01:29;;;;;;;24.25;12.40;;;13.90;99.90;;;;;;4900945;28;87246;-81
2022/10/12 04:03:55;;;;;;;13.55;7.53;;;13.90;99.90;;;;;;4901249;28;86487;-80
2022/10/12 04:06:21;;;;;;;14.60;7.25;;;13.90;99.90;;;;;;4904380;28;87681;-80
2022/10/12 04:08:46;;;;;;;14.05;7.00;;;13.90;99.90;;;;;;4912146;28;86299;-80
2022/10/12 04:11:12;;;;;;;10.73;5.97;;;13.90;99.90;;;;;;4909102;28;89126;-81
2022/10/12 04:13:38;;;;;;;14.60;5.85;;;13.90;99.90;;;;;;4916180;28;86978;-80
2022/10/12 04:16:05;;;;;;;10.85;5.18;;;13.90;99.90;;;;;;4920784;28;86750;-81
2022/10/12 04:18:32;;;;;;;18.80;5.57;;;14.00;99.90;;;;;;4923065;28;86351;-80
2022/10/12 04:20:59;;;;;;;14.15;5.55;;;14.10;99.90;;;;;;4900628;28;87159;-80
2022/10/12 04:23:24;;;;;;;11.60;5.93;;;14.20;99.90;;;;;;4904884;28;87028;-80
2022/10/12 04:25:50;;;;;;;12.27;6.10;;;14.20;99.90;;;;;;4907154;28;86321;-80
2022/10/12 04:28:16;;;;;;;12.43;6.03;;;14.20;99.90;;;;;;4909169;28;87347;-80
2022/10/12 04:30:41;;;;;;;11.43;6.15;;;14.20;99.90;;;;;;4905186;28;89601;-80
2022/10/12 04:33:07;;;;;;;12.80;5.97;;;14.20;99.90;;;;;;4906752;28;87792;-78
2022/10/12 04:35:33;;;;;;;12.02;5.85;;;14.20;99.90;;;;;;4913793;28;86777;-77
2022/10/12 04:37:59;;;;;;;12.25;6.07;;;14.20;99.90;;;;;;4905713;28;87507;-77
2022/10/12 04:40:24;;;;;;;10.27;5.93;;;14.20;99.90;;;;;;4910159;28;87526;-77
2022/10/12 04:42:50;;;;;;;13.10;5.75;;;14.10;99.90;;;;;;4902511;28;88321;-78
2022/10/12 04:45:16;;;;;;;14.27;5.90;;;14.10;99.90;;;;;;4900073;28;87066;-77
2022/10/12 04:47:42;;;;;;;12.15;5.85;;;14.10;99.90;;;;;;4909148;28;86009;-79
2022/10/12 04:50:08;;;;;;;15.65;6.13;;;14.20;99.90;;;;;;4901507;28;86367;-79
2022/10/12 04:52:33;;;;;;;13.57;5.40;;;14.20;99.90;;;;;;4910097;28;86941;-78
2022/10/12 04:54:59;;;;;;;10.30;5.68;;;14.20;99.90;;;;;;4902052;28;87888;-80
2022/10/12 04:57:25;;;;;;;13.45;5.55;;;14.20;99.90;;;;;;4904572;28;87138;-81
2022/10/12 04:59:50;;;;;;;10.48;4.97;;;14.20;99.90;;;;;;4908748;28;87237;-81
2022/10/12 05:02:17;;;;;;;15.60;5.60;;;14.20;99.90;;;;;;4902760;28;86728;-81
2022/10/12 05:04:43;;;;;;;11.70;5.05;;;14.30;99.90;;;;;;4907795;28;86831;-81
2022/10/12 05:07:09;;;;;;;13.35;6.53;;;14.20;99.90;;;;;;4905852;28;86629;-81
2022/10/12 05:09:34;;;;;;;11.88;6.18;;;14.20;99.90;;;;;;4910043;28;87283;-81
2022/10/12 05:12:00;;;;;;;10.10;5.53;;;14.20;99.90;;;;;;4914489;28;87175;-81
2022/10/12 05:14:26;;;;;;;13.32;5.75;;;14.20;99.90;;;;;;4902257;28;86445;-81
2022/10/12 05:16:51;;;;;;;14.73;6.38;;;14.20;99.90;;;;;;4901598;28;87694;-81
2022/10/12 05:19:17;;;;;;;17.58;7.65;;;14.20;99.90;;;;;;4909926;28;89639;-81
2022/10/12 05:21:43;;;;;;;13.63;7.10;;;14.10;99.90;;;;;;4903669;28;87696;-81
2022/10/12 05:24:09;;;;;;;12.13;6.65;;;14.10;99.90;;;;;;4902977;28;86380;-81
2022/10/12 05:26:35;;;;;;;9.68;5.55;;;14.10;99.90;;;;;;4911934;28;86322;-81
2022/10/12 05:29:01;;;;;;;12.73;4.90;;;14.10;99.90;;;;;;4901561;28;87211;-81
2022/10/12 05:31:26;;;;;;;9.82;4.63;;;14.20;99.90;;;;;;4904001;28;87716;-81
2022/10/12 05:33:52;;;;;;;14.55;5.50;;;14.10;99.90;;;;;;4899847;28;86874;-81
2022/10/12 05:36:18;;;;;;;9.80;4.90;;;14.10;99.90;;;;;;4919059;28;85694;-81
2022/10/12 05:38:44;;;;;;;9.48;4.32;;;14.00;99.90;;;;;;4909245;28;87342;-81
2022/10/12 05:41:09;;;;;;;12.15;4.78;;;14.00;99.90;;;;;;4918963;28;87501;-81
2022/10/12 05:43:35;;;;;;;12.15;4.45;;;14.10;99.90;;;;;;4911497;28;87819;-81
2022/10/12 05:46:01;;;;;;;11.20;4.78;;;14.10;99.90;;;;;;4904572;28;86414;-81
2022/10/12 05:48:26;;;;;;;7.43;4.25;;;14.20;99.90;;;;;;4911267;28;87174;-81
2022/10/12 05:50:53;;;;;;;12.25;4.97;;;14.10;99.90;;;;;;4908783;28;86418;-81
2022/10/12 05:53:19;;;;;;;9.75;4.32;;;14.00;99.90;;;;;;4901753;28;86368;-80
2022/10/12 05:55:52;;;;;;;9.38;4.28;;;14.00;99.90;;;;;;4902313;28;87012;-81
2022/10/12 05:58:18;;;;;;;10.32;4.35;;;14.00;99.90;;;;;;4904431;28;87651;-81
2022/10/12 06:00:43;;;;;;;10.32;4.28;;;14.10;99.90;;;;;;4900263;28;86176;-80
2022/10/12 06:03:09;;;;;;;11.40;4.97;;;14.20;99.90;;;;;;4900670;28;86343;-81
2022/10/12 06:05:35;;;;;;;9.60;4.88;;;14.30;99.90;;;;;;4907214;28;86671;-80
2022/10/12 06:08:00;;;;;;;9.68;4.80;;;14.30;99.90;;;;;;4908091;28;87676;-81
2022/10/12 06:10:26;;;;;;;10.38;5.55;;;14.30;99.90;;;;;;4905942;28;87427;-81
2022/10/12 06:12:52;;;;;;;11.43;5.47;;;14.40;99.90;;;;;;4903713;28;86410;-81
2022/10/12 06:15:17;;;;;;;15.27;6.57;;;14.40;99.90;;;;;;4904930;28;87065;-81
2022/10/12 06:17:43;;;;;;;14.85;6.75;;;14.40;99.90;;;;;;4908701;28;87561;-81
2022/10/12 06:20:09;;;;;;;15.13;6.47;;;14.40;99.90;;;;;;4915915;28;86978;-81
2022/10/12 06:22:35;;;;;;;14.20;6.55;;;14.40;99.90;;;;;;4907156;28;86498;-81
2022/10/12 06:25:00;;;;;;;12.57;6.55;;;14.40;99.90;;;;;;4907478;28;86077;-81
2022/10/12 06:27:26;;;;;;;19.00;6.93;;;14.50;99.90;;;;;;4904472;28;87302;-81
2022/10/12 06:29:52;;;;;;;16.70;6.82;;;14.50;99.90;;;;;;4914467;28;87202;-80
2022/10/12 06:32:17;;;;;;;13.57;6.53;;;14.50;99.90;;;;;;4905214;28;87387;-81
2022/10/12 06:34:44;;;;;;;14.38;6.82;;;14.50;99.90;;;;;;4907688;28;86300;-81
2022/10/12 06:37:10;;;;;;;19.10;6.85;;;14.50;99.90;;;;;;4903338;28;87226;-81
2022/10/12 06:39:35;;;;;;;17.88;7.57;;;14.40;99.90;;;;;;4910500;28;87099;-81
2022/10/12 06:42:01;;;;;;;20.63;10.63;;;14.40;99.90;;;;;;4908884;28;87659;-81
2022/10/12 06:44:27;;;;;;;21.02;9.50;;;14.50;99.90;;;;;;4907000;28;86770;-81
2022/10/12 06:46:53;;;;;;;21.55;8.65;;;14.50;99.90;;;;;;4911220;28;87128;-81
2022/10/12 06:49:18;;;;;;;15.52;7.90;;;14.60;99.90;;;;;;4910259;28;86945;-81
2022/10/12 06:51:44;;;;;;;15.85;8.10;;;14.60;99.90;;;;;;4906644;28;86643;-81
2022/10/12 06:54:10;;;;;;;19.35;8.40;;;14.60;99.90;;;;;;4907550;28;86708;-81
2022/10/12 06:56:37;;;;;;;22.20;8.68;;;14.60;99.90;;;;;;4905463;28;89004;-81
2022/10/12 06:59:02;;;;;;;21.38;9.57;;;14.60;99.90;;;;;;4914228;28;88303;-81
2022/10/12 07:01:28;;;;;;;22.38;10.38;;;14.60;99.90;;;;;;4905934;28;86758;-81
2022/10/12 07:03:55;;;;;;;19.60;7.65;;;14.60;99.90;;;;;;4905804;28;86542;-81
2022/10/12 07:06:20;;;;;;;18.05;8.48;;;14.70;99.90;;;;;;4907390;28;88600;-81
2022/10/12 07:08:47;;;;;;;18.80;8.13;;;14.80;99.90;;;;;;4907388;28;86947;-80
2022/10/12 07:11:13;;;;;;;19.20;8.57;;;14.80;99.90;;;;;;4902775;28;86943;-81
2022/10/12 07:13:39;;;;;;;19.15;8.30;;;14.90;99.90;;;;;;4908056;28;85833;-80
2022/10/12 07:16:06;;;;;;;20.55;9.73;;;14.90;99.90;;;;;;4912917;28;87268;-81
2022/10/12 07:18:32;;;;;;;20.60;10.10;;;14.90;99.90;;;;;;4908839;28;87055;-81
2022/10/12 07:21:01;;;;;;;20.60;9.85;;;14.90;99.90;;;;;;4904677;28;87667;-81
2022/10/12 07:23:28;;;;;;;23.58;10.98;;;15.00;99.90;;;;;;4904890;28;86693;-81
2022/10/12 07:25:54;;;;;;;26.27;11.60;;;15.10;99.90;;;;;;4906698;28;87721;-81
2022/10/12 07:28:20;;;;;;;27.65;12.02;;;15.10;99.90;;;;;;4907596;28;86876;-81
2022/10/12 07:30:47;;;;;;;26.08;11.55;;;15.10;99.90;;;;;;4910473;28;86930;-81
2022/10/12 07:33:12;;;;;;;27.40;10.98;;;15.10;99.90;;;;;;4910783;28;86319;-81
2022/10/12 07:35:38;;;;;;;26.67;11.57;;;15.10;99.90;;;;;;4911727;28;87771;-81
2022/10/12 07:38:04;;;;;;;27.27;11.38;;;15.20;99.90;;;;;;4893266;28;88443;-81
2022/10/12 07:40:30;;;;;;;24.15;11.48;;;15.20;99.90;;;;;;4912329;28;87110;-82
2022/10/12 07:42:56;;;;;;;30.70;12.30;;;15.30;99.90;;;;;;4913905;28;86824;-81
2022/10/12 07:45:22;;;;;;;23.67;10.85;;;15.40;99.90;;;;;;4910076;28;89533;-81
2022/10/12 07:47:47;;;;;;;24.25;11.88;;;15.50;99.90;;;;;;4906043;28;90176;-81
2022/10/12 07:50:13;;;;;;;24.80;12.18;;;15.50;99.90;;;;;;4904691;28;86358;-81
2022/10/12 07:52:39;;;;;;;26.95;11.90;;;15.50;99.90;;;;;;4909471;28;86632;-81
2022/10/12 07:55:06;;;;;;;28.45;11.52;;;15.50;99.90;;;;;;4911069;28;86568;-81
2022/10/12 07:57:33;;;;;;;26.08;11.70;;;15.50;99.90;;;;;;4916352;28;87641;-81
2022/10/12 07:59:58;;;;;;;27.15;11.05;;;15.40;99.90;;;;;;4906018;28;88245;-81
2022/10/12 08:02:24;;;;;;;21.42;9.63;;;15.50;99.90;;;;;;4903644;28;85556;-81
2022/10/12 08:04:51;;;;;;;27.05;10.50;;;15.60;99.90;;;;;;4906039;28;87436;-81
2022/10/12 08:07:16;;;;;;;30.58;11.55;;;15.60;99.90;;;;;;4906717;28;86820;-81
2022/10/12 08:09:42;;;;;;;18.63;10.27;;;15.60;99.90;;;;;;4904948;28;87183;-81
2022/10/12 08:12:10;;;;;;;28.20;11.27;;;15.70;99.90;;;;;;4906262;28;86894;-81
2022/10/12 08:14:36;;;;;;;25.33;11.10;;;15.80;99.90;;;;;;4906473;28;87347;-81
2022/10/12 08:17:01;;;;;;;22.98;11.50;;;15.80;99.90;;;;;;4906345;28;87254;-81
2022/10/12 08:19:28;;;;;;;24.63;11.05;;;15.90;99.90;;;;;;4904620;28;87032;-81
2022/10/12 08:21:53;;;;;;;24.23;10.48;;;15.80;99.90;;;;;;4901201;28;87454;-81
2022/10/12 08:24:19;;;;;;;25.23;11.43;;;15.80;99.90;;;;;;4910249;28;87308;-81
2022/10/12 08:26:45;;;;;;;23.20;10.73;;;15.80;99.90;;;;;;4903166;28;86916;-81
2022/10/12 08:29:10;;;;;;;25.80;10.90;;;15.90;99.90;;;;;;4902053;28;86510;-80
2022/10/12 08:31:36;;;;;;;22.05;10.18;;;16.00;99.90;;;;;;4901965;28;86650;-81
2022/10/12 08:34:03;;;;;;;21.77;10.25;;;16.20;99.90;;;;;;4901080;28;88640;-81
2022/10/12 08:36:29;;;;;;;21.40;10.75;;;16.20;99.90;;;;;;4903177;28;88061;-81
2022/10/12 08:38:55;;;;;;;26.08;12.00;;;16.10;99.90;;;;;;4902287;28;86825;-81
2022/10/12 08:41:44;;;;;;;25.08;10.43;;;16.10;99.90;;;;;;4902614;28;87092;-81
2022/10/12 08:44:42;;;;;;;21.13;10.48;;;16.30;99.90;;;;;;4903821;28;87879;-81
2022/10/12 08:47:35;;;;;;;28.33;10.90;;;16.30;99.90;;;;;;4901683;28;86348;-81
2022/10/12 08:50:03;;;;;;;23.15;9.90;;;16.50;99.90;;;;;;4896361;28;86953;-81
2022/10/12 08:52:55;;;;;;;26.25;10.38;;;16.80;99.90;;;;;;4905785;28;85568;-81
2022/10/12 08:55:25;;;;;;;21.42;10.02;;;16.90;99.90;;;;;;4895878;28;87268;-81
2022/10/12 08:57:51;;;;;;;25.05;9.93;;;17.00;99.90;;;;;;4902268;28;87967;-81
2022/10/12 09:00:17;;;;;;;21.45;10.10;;;17.00;99.90;;;;;;4903418;28;87346;-81
2022/10/12 09:03:00;;;;;;;23.40;9.88;;;17.10;99.90;;;;;;4905287;28;86310;-82
2022/10/12 09:05:41;;;;;;;22.00;10.43;;;17.30;98.60;;;;;;4903543;28;87238;-81
2022/10/12 09:08:11;;;;;;;25.05;10.80;;;17.20;99.50;;;;;;4905036;28;86919;-81
2022/10/12 09:10:58;;;;;;;22.80;9.93;;;17.30;98.30;;;;;;4902106;28;86751;-81
2022/10/12 09:13:53;;;;;;;22.30;11.05;;;17.40;98.70;;;;;;4909042;28;86609;-81
2022/10/12 09:16:28;;;;;;;22.60;10.43;;;17.70;97.60;;;;;;4905780;28;87705;-81
2022/10/12 09:18:57;;;;;;;20.90;9.68;;;17.80;96.00;;;;;;4905563;28;86761;-81
2022/10/12 09:21:26;;;;;;;21.67;9.02;;;17.90;95.70;;;;;;4905500;28;87095;-81
2022/10/12 09:23:54;;;;;;;20.63;10.10;;;18.10;95.00;;;;;;4913342;28;87657;-83
2022/10/12 09:26:35;;;;;;;20.60;9.68;;;18.00;94.80;;;;;;4904237;28;88114;-81
2022/10/12 09:29:03;;;;;;;20.50;9.13;;;18.10;95.30;;;;;;4907573;28;88026;-81
2022/10/12 09:31:55;;;;;;;22.75;9.20;;;18.20;93.80;;;;;;4911638;28;86664;-81
2022/10/12 09:34:23;;;;;;;21.00;8.85;;;18.00;94.50;;;;;;4906326;28;86263;-81
2022/10/12 09:36:49;;;;;;;21.02;9.25;;;18.10;93.30;;;;;;4909528;28;87528;-81
2022/10/12 09:39:18;;;;;;;22.42;9.20;;;17.70;94.20;;;;;;4906542;28;87108;-84
2022/10/12 09:41:46;;;;;;;23.38;9.55;;;17.80;94.80;;;;;;4906358;28;86935;-81
2022/10/12 09:44:30;;;;;;;22.48;9.65;;;18.10;93.80;;;;;;4905551;28;85489;-81
2022/10/12 09:46:59;;;;;;;19.17;9.27;;;17.50;95.30;;;;;;4906236;28;87484;-81
2022/10/12 09:49:45;;;;;;;21.77;8.60;;;17.60;95.00;;;;;;4909080;28;86490;-81
2022/10/12 09:52:12;;;;;;;20.50;8.57;;;17.70;94.30;;;;;;4913359;28;87938;-81
2022/10/12 09:54:53;;;;;;;22.58;10.10;;;17.70;94.90;;;;;;4911827;28;86586;-81
2022/10/12 09:57:21;;;;;;;24.25;9.13;;;17.60;95.80;;;;;;4919978;28;86800;-81
2022/10/12 09:59:48;;;;;;;21.75;9.35;;;17.40;95.90;;;;;;4903120;28;87463;-81
2022/10/12 10:02:17;;;;;;;19.30;8.75;;;17.10;96.00;;;;;;4904085;28;86789;-81
2022/10/12 10:04:45;;;;;;;21.65;8.82;;;16.90;96.90;;;;;;4906894;28;86975;-81
2022/10/12 10:07:12;;;;;;;17.83;8.27;;;16.70;97.50;;;;;;4911166;28;87374;-81
2022/10/12 10:09:37;;;;;;;17.75;8.52;;;16.70;97.70;;;;;;4910769;28;87001;-81
2022/10/12 10:12:25;;;;;;;19.63;8.02;;;16.70;97.80;;;;;;4910035;28;86603;-81
2022/10/12 10:14:55;;;;;;;13.90;6.88;;;16.90;97.90;;;;;;4918131;28;86466;-85
2022/10/12 10:17:48;;;;;;;15.30;7.18;;;17.30;97.70;;;;;;4916715;28;88258;-85
2022/10/12 10:20:25;;;;;;;20.08;8.70;;;17.70;95.80;;;;;;4907547;28;87712;-86
2022/10/12 10:22:50;;;;;;;16.30;7.80;;;17.80;95.10;;;;;;4921943;28;86801;-85
2022/10/12 10:25:21;;;;;;;17.40;8.10;;;17.70;95.30;;;;;;4918701;28;86383;-85
2022/10/12 10:27:49;;;;;;;14.88;7.60;;;17.60;95.00;;;;;;4905554;28;87335;-85
2022/10/12 10:30:15;;;;;;;19.35;8.10;;;17.40;96.10;;;;;;4908217;28;86976;-85
2022/10/12 10:32:45;;;;;;;20.73;9.15;;;17.40;95.90;;;;;;4906550;28;86393;-85
2022/10/12 10:35:10;;;;;;;18.25;8.68;;;17.50;95.90;;;;;;4913562;28;86169;-85
2022/10/12 10:37:41;;;;;;;20.83;8.80;;;17.70;95.10;;;;;;4904103;28;87282;-85
2022/10/12 10:40:15;;;;;;;17.80;7.60;;;17.70;95.20;;;;;;4909989;28;86627;-85
2022/10/12 10:42:40;;;;;;;17.63;8.85;;;17.80;95.40;;;;;;4912250;28;87810;-85
2022/10/12 10:45:07;;;;;;;16.80;7.97;;;18.10;94.00;;;;;;4910471;28;86772;-83
2022/10/12 10:47:42;;;;;;;15.02;8.75;;;18.20;94.10;;;;;;4909728;28;87367;-83
2022/10/12 10:50:35;;;;;;;19.23;8.55;;;18.40;93.00;;;;;;4911575;28;87121;-83
2022/10/12 10:53:05;;;;;;;14.32;7.57;;;18.20;93.80;;;;;;4909656;28;86698;-83
2022/10/12 10:55:40;;;;;;;14.05;7.43;;;18.20;93.20;;;;;;4908489;28;87008;-85
2022/10/12 10:58:31;;;;;;;20.10;9.15;;;18.30;93.40;;;;;;4904507;28;87366;-85
2022/10/12 11:01:04;;;;;;;20.42;9.73;;;18.60;92.40;;;;;;4892559;28;87165;-85
2022/10/12 11:03:49;;;;;;;20.42;8.98;;;18.70;92.20;;;;;;4909073;28;86525;-83
2022/10/12 11:06:18;;;;;;;20.55;10.13;;;18.60;91.70;;;;;;4904871;28;86751;-83
2022/10/12 11:08:46;;;;;;;20.60;8.68;;;18.60;92.30;;;;;;4899639;28;90269;-83
2022/10/12 11:11:20;;;;;;;20.90;8.95;;;18.80;92.40;;;;;;4897591;28;88216;-83
2022/10/12 11:14:03;;;;;;;18.77;8.45;;;18.70;91.30;;;;;;4893711;28;86973;-83
2022/10/12 11:16:56;;;;;;;17.77;8.23;;;18.30;93.00;;;;;;4906159;28;86432;-83
2022/10/12 11:19:41;;;;;;;19.85;8.32;;;18.70;92.30;;;;;;4906373;28;87285;-83
2022/10/12 11:22:15;;;;;;;20.25;8.07;;;18.90;90.90;;;;;;4914940;28;86866;-81
2022/10/12 11:24:56;;;;;;;18.80;8.65;;;19.20;90.70;;;;;;4914365;28;86311;-81
2022/10/12 11:27:41;;;;;;;16.88;7.75;;;19.50;90.30;;;;;;4919048;28;85602;-81
2022/10/12 11:30:15;;;;;;;17.55;8.10;;;19.60;90.00;;;;;;4905221;28;87000;-81
2022/10/12 11:32:48;;;;;;;21.90;8.05;;;19.20;89.80;;;;;;4916086;28;87601;-81
2022/10/12 11:35:29;;;;;;;20.20;8.38;;;19.10;90.40;;;;;;4905490;28;87701;-82
2022/10/12 11:38:01;;;;;;;18.30;7.93;;;19.20;89.30;;;;;;4904320;28;86666;-82
2022/10/12 11:40:32;;;;;;;18.95;7.93;;;19.00;90.00;;;;;;4907742;28;87839;-82
2022/10/12 11:43:05;;;;;;;17.88;8.00;;;18.90;90.80;;;;;;4906676;28;87952;-82
2022/10/12 11:45:40;;;;;;;20.45;7.38;;;18.90;90.10;;;;;;4910199;28;87039;-82
2022/10/12 11:48:34;;;;;;;14.95;7.30;;;18.90;90.80;;;;;;4905620;28;87132;-82
2022/10/12 11:51:00;;;;;;;15.55;7.57;;;18.90;90.10;;;;;;4910488;28;87424;-83
2022/10/12 11:53:49;;;;;;;15.70;7.57;;;18.70;90.00;;;;;;4912189;28;86194;-83
2022/10/12 11:56:45;;;;;;;13.25;6.95;;;18.40;90.50;;;;;;4910226;28;86600;-83
2022/10/12 11:59:33;;;;;;;16.83;7.22;;;17.80;91.50;;;;;;4911535;28;86257;-83
2022/10/12 12:02:19;;;;;;;18.20;8.18;;;17.70;91.70;;;;;;4917507;28;88026;-82
2022/10/12 12:04:47;;;;;;;14.80;7.28;;;17.50;92.80;;;;;;4927576;28;87331;-84
2022/10/12 12:07:48;;;;;;;13.77;7.18;;;17.50;92.70;;;;;;4924148;28;86637;-81
2022/10/12 12:10:26;;;;;;;16.13;7.68;;;17.70;92.60;;;;;;4920447;28;86341;-82
2022/10/12 12:13:11;;;;;;;13.15;6.80;;;17.70;92.30;;;;;;4909105;28;86825;-82
2022/10/12 12:15:57;;;;;;;16.55;7.95;;;17.80;92.90;;;;;;4927660;28;87544;-82
2022/10/12 12:18:24;;;;;;;16.05;7.30;;;18.00;92.50;;;;;;4914867;28;86780;-83
2022/10/12 12:20:59;;;;;;;12.70;6.50;;;18.00;92.30;;;;;;4913270;28;85492;-83
2022/10/12 12:23:28;;;;;;;12.95;6.38;;;18.30;91.70;;;;;;4922318;28;89182;-81
2022/10/12 12:26:09;;;;;;;15.15;6.95;;;18.50;92.20;;;;;;4920078;28;88221;-83
2022/10/12 12:28:42;;;;;;;16.25;7.03;;;19.00;91.20;;;;;;4920859;28;87747;-83
2022/10/12 12:31:13;;;;;;;15.80;8.70;;;19.20;90.70;;;;;;4919155;28;86518;-82
2022/10/12 12:33:41;;;;;;;15.55;6.60;;;19.50;89.40;;;;;;4915458;28;87324;-82
2022/10/12 12:36:11;;;;;;;18.23;7.45;;;19.60;87.30;;;;;;4913834;28;86924;-83
2022/10/12 12:38:45;;;;;;;17.10;8.18;;;19.60;87.60;;;;;;4922319;28;88592;-81
2022/10/12 12:41:19;;;;;;;19.38;8.70;;;19.40;88.90;;;;;;4907292;28;86852;-82
2022/10/12 12:43:48;;;;;;;16.30;7.13;;;19.20;89.10;;;;;;4902916;28;86675;-82
2022/10/12 12:46:14;;;;;;;13.95;6.57;;;19.10;89.00;;;;;;4908624;28;87120;-82
2022/10/12 12:48:43;;;;;;;14.48;6.63;;;19.20;88.40;;;;;;4909546;28;87715;-81
2022/10/12 12:51:14;;;;;;;14.18;6.57;;;19.10;88.00;;;;;;4902635;28;86718;-81
2022/10/12 12:53:56;;;;;;;13.63;6.32;;;19.20;87.80;;;;;;4910082;28;88204;-84
2022/10/12 12:56:42;;;;;;;13.95;6.78;;;19.40;86.20;;;;;;4908105;28;88093;-82
2022/10/12 12:59:33;;;;;;;14.15;6.20;;;19.50;85.40;;;;;;4907694;28;86395;-83
2022/10/12 13:02:29;;;;;;;15.43;6.57;;;19.70;85.90;;;;;;4911053;28;86421;-82
2022/10/12 13:05:19;;;;;;;16.10;6.40;;;19.60;86.10;;;;;;4909502;28;88093;-82
2022/10/12 13:08:09;;;;;;;13.07;7.80;;;19.30;85.90;;;;;;4923620;28;87497;-82
2022/10/12 13:11:17;;;;;;;18.10;6.32;;;19.40;86.10;;;;;;4916281;28;86519;-83
2022/10/12 13:13:55;;;;;;;14.68;6.88;;;19.40;86.00;;;;;;4871369;28;85576;-83
2022/10/12 13:16:56;;;;;;;13.05;6.25;;;19.30;86.60;;;;;;4915298;28;86962;-83
2022/10/12 13:19:23;;;;;;;17.58;6.95;;;19.20;87.20;;;;;;4910804;28;86749;-82
2022/10/12 13:21:54;;;;;;;18.30;7.72;;;19.00;87.60;;;;;;4911732;28;88050;-84
2022/10/12 13:24:41;;;;;;;18.58;7.22;;;19.00;87.50;;;;;;4903217;28;86865;-83
2022/10/12 13:27:34;;;;;;;24.05;8.07;;;18.90;87.60;;;;;;4911664;28;87440;-83
2022/10/12 13:30:22;;;;;;;18.27;7.65;;;18.90;88.00;;;;;;4901192;28;87498;-83
2022/10/12 13:32:54;;;;;;;18.25;7.57;;;18.90;87.10;;;;;;4916391;28;86265;-82
2022/10/12 13:35:26;;;;;;;20.02;8.10;;;18.80;87.90;;;;;;4905684;28;86779;-84
2022/10/12 13:38:14;;;;;;;17.58;7.70;;;18.70;87.90;;;;;;4909615;28;87698;-83
2022/10/12 13:41:02;;;;;;;17.15;7.53;;;18.60;88.50;;;;;;4904092;28;86481;-84
2022/10/12 13:43:50;;;;;;;18.90;6.95;;;18.70;89.20;;;;;;4908526;28;86884;-83
2022/10/12 13:46:42;;;;;;;22.77;8.10;;;18.70;88.80;;;;;;4905654;28;86231;-82
2022/10/12 13:49:16;;;;;;;17.98;7.40;;;18.70;89.00;;;;;;4908055;28;89928;-83
2022/10/12 13:51:45;;;;;;;18.58;7.95;;;18.70;88.20;;;;;;4903922;28;88151;-82
2022/10/12 13:54:27;;;;;;;15.63;6.85;;;18.40;88.40;;;;;;4900619;28;87413;-84
2022/10/12 13:56:58;;;;;;;15.07;6.65;;;18.30;90.00;;;;;;4908297;28;86963;-83
2022/10/12 13:59:26;;;;;;;19.98;8.25;;;18.30;89.60;;;;;;4905215;28;87308;-82
2022/10/12 14:02:01;;;;;;;17.95;7.47;;;18.30;89.50;;;;;;4906114;28;87077;-83
2022/10/12 14:04:31;;;;;;;24.35;8.30;;;18.50;89.40;;;;;;4914072;28;86986;-82
2022/10/12 14:07:06;;;;;;;23.40;9.32;;;18.30;89.30;;;;;;4906831;28;85899;-83
2022/10/12 14:09:44;;;;;;;15.60;6.78;;;18.10;89.90;;;;;;4907163;28;88060;-83
2022/10/12 14:12:11;;;;;;;16.63;6.28;;;18.10;90.60;;;;;;4908561;28;88066;-83
2022/10/12 14:14:39;;;;;;;15.93;7.15;;;18.10;90.20;;;;;;4911328;28;88370;-82
2022/10/12 14:17:05;;;;;;;16.98;7.18;;;18.10;90.00;;;;;;4914155;28;86703;-82
2022/10/12 14:20:00;;;;;;;18.92;7.25;;;18.00;90.20;;;;;;4912704;28;86477;-82
2022/10/12 14:22:28;;;;;;;18.45;8.25;;;17.90;90.40;;;;;;4877237;28;86808;-82
2022/10/12 14:25:20;;;;;;;18.27;5.90;;;17.80;90.60;;;;;;4917230;28;86677;-82
2022/10/12 14:27:56;;;;;;;13.05;5.75;;;17.80;90.70;;;;;;4921030;28;86483;-82
2022/10/12 14:30:28;;;;;;;15.68;6.70;;;17.80;90.80;;;;;;4919482;28;86823;-82
2022/10/12 14:33:07;;;;;;;19.38;7.50;;;17.90;91.00;;;;;;4924377;28;86221;-82
2022/10/12 14:35:36;;;;;;;18.45;6.80;;;17.70;91.00;;;;;;4915690;28;86384;-82
2022/10/12 14:38:33;;;;;;;17.95;6.05;;;17.60;91.20;;;;;;4920247;28;86246;-82
2022/10/12 14:41:42;;;;;;;14.07;5.63;;;17.60;91.20;;;;;;4908162;28;88072;-82
2022/10/12 14:44:07;;;;;;;;;;;17.50;91.10;;;;;;4910555;28;87355;-82
2022/10/12 14:46:33;;;;;;;13.75;5.72;;;17.50;91.00;;;;;;4910722;28;86313;-83
2022/10/12 14:48:59;;;;;;;14.60;6.30;;;17.30;91.40;;;;;;4914967;28;86517;-82
2022/10/12 14:51:25;;;;;;;13.30;6.05;;;17.10;92.10;;;;;;4917339;28;86990;-82
2022/10/12 14:54:01;;;;;;;13.32;6.07;;;17.10;91.90;;;;;;4909430;28;87426;-82
2022/10/12 14:56:27;;;;;;;14.65;5.28;;;17.10;92.10;;;;;;4913626;28;86235;-83
2022/10/12 14:58:53;;;;;;;13.70;5.65;;;17.20;92.10;;;;;;4913690;28;85555;-82
2022/10/12 15:01:19;;;;;;;15.23;5.53;;;17.20;92.10;;;;;;4911110;28;87031;-82
2022/10/12 15:03:44;;;;;;;12.38;5.70;;;17.30;91.70;;;;;;4906548;28;86456;-82
2022/10/12 15:06:15;;;;;;;13.50;5.63;;;17.30;91.50;;;;;;4903259;28;88133;-83
2022/10/12 15:08:40;;;;;;;15.77;4.88;;;17.10;91.90;;;;;;4910600;28;86882;-83
2022/10/12 15:11:09;;;;;;;13.50;5.65;;;16.90;92.40;;;;;;4928624;28;87249;-82
2022/10/12 15:13:35;;;;;;;21.60;5.70;;;16.90;92.30;;;;;;4920075;28;87198;-83
2022/10/12 15:16:01;;;;;;;14.25;5.97;;;16.80;92.50;;;;;;4927550;28;86915;-82
2022/10/12 15:18:26;;;;;;;14.85;7.18;;;16.80;93.00;;;;;;4917887;28;86427;-82
2022/10/12 15:20:55;;;;;;;15.95;6.28;;;16.60;93.50;;;;;;4922506;28;87292;-82
2022/10/12 15:23:21;;;;;;;14.27;6.07;;;16.70;93.40;;;;;;4906126;28;86405;-83
2022/10/12 15:25:52;;;;;;;17.58;6.55;;;16.60;93.70;;;;;;4916973;28;86553;-83
2022/10/12 15:28:19;;;;;;;13.90;6.75;;;16.50;93.60;;;;;;4915514;28;87362;-82
2022/10/12 15:30:45;;;;;;;16.95;6.22;;;16.50;93.70;;;;;;4920562;28;87734;-83
2022/10/12 15:33:11;;;;;;;13.20;5.63;;;16.50;94.00;;;;;;4911864;28;87129;-82
2022/10/12 15:35:37;;;;;;;18.73;6.03;;;16.50;94.00;;;;;;4916822;28;86529;-83
2022/10/12 15:38:03;;;;;;;14.65;6.35;;;16.60;93.90;;;;;;4916429;28;86923;-82
2022/10/12 15:40:31;;;;;;;13.20;5.75;;;16.60;93.90;;;;;;4914334;28;87226;-82
2022/10/12 15:42:57;;;;;;;17.42;6.40;;;16.60;94.10;;;;;;4911888;28;86414;-83